CJX3 weather

La Ronge Heliport
La Ronge, Saskatchewan, Canada

Public forecast

Using degrees Celsius for public forecast. Weather courtesy of forecast.io.

METAR (pilot weather report)

Closest report is La Ronge Airport, 2.5 nm (4.6 km) NNE. Retrieved 2019/05/22 15:00 UTC (12 minutes ago):

CYVC 221500Z 06006KT 15SM SKC 15/03 A3008 RMK SLP197 DENSITY ALT 1400FT

TAF (pilot weather forecast)

Closest forecast is La Ronge Airport, 2.5 nm (4.6 km) NNE. Retrieved 2019/05/22 13:39 UTC (2 hours ago):

TAF CYVC 221238Z 2213/2301 VRB03KT P6SM SKC FM221700 09008KT P6SM SCT100 RMK NXT FCST BY 221900Z